sensor_id;sensor_type;location;lat;lon;timestamp;P1;durP1;ratioP1;P2;durP2;ratioP2
65706;SDS011;52423;43.512;5.220;2023-06-19T00:01:47;4.63;;;4.00;;
65706;SDS011;52423;43.512;5.220;2023-06-19T00:04:12;7.63;;;4.38;;
65706;SDS011;52423;43.512;5.220;2023-06-19T00:06:38;8.18;;;4.20;;
65706;SDS011;52423;43.512;5.220;2023-06-19T00:09:03;5.35;;;4.00;;
65706;SDS011;52423;43.512;5.220;2023-06-19T00:11:30;4.72;;;4.32;;
65706;SDS011;52423;43.512;5.220;2023-06-19T00:13:55;5.65;;;4.05;;
65706;SDS011;52423;43.512;5.220;2023-06-19T00:16:20;9.20;;;4.05;;
65706;SDS011;52423;43.512;5.220;2023-06-19T00:18:46;4.63;;;4.18;;
65706;SDS011;52423;43.512;5.220;2023-06-19T00:21:11;5.07;;;4.50;;
65706;SDS011;52423;43.512;5.220;2023-06-19T00:23:37;4.13;;;3.83;;
65706;SDS011;52423;43.512;5.220;2023-06-19T00:26:03;4.60;;;4.20;;
65706;SDS011;52423;43.512;5.220;2023-06-19T00:28:29;10.02;;;4.18;;
65706;SDS011;52423;43.512;5.220;2023-06-19T00:30:55;9.52;;;4.50;;
65706;SDS011;52423;43.512;5.220;2023-06-19T00:33:20;4.13;;;3.83;;
65706;SDS011;52423;43.512;5.220;2023-06-19T00:35:46;4.45;;;4.05;;
65706;SDS011;52423;43.512;5.220;2023-06-19T00:38:13;4.45;;;3.80;;
65706;SDS011;52423;43.512;5.220;2023-06-19T00:40:38;4.45;;;3.97;;
65706;SDS011;52423;43.512;5.220;2023-06-19T00:43:04;4.40;;;4.00;;
65706;SDS011;52423;43.512;5.220;2023-06-19T00:45:30;7.50;;;3.80;;
65706;SDS011;52423;43.512;5.220;2023-06-19T00:47:56;4.55;;;4.15;;
65706;SDS011;52423;43.512;5.220;2023-06-19T00:50:23;4.85;;;4.13;;
65706;SDS011;52423;43.512;5.220;2023-06-19T00:52:49;5.00;;;4.10;;
65706;SDS011;52423;43.512;5.220;2023-06-19T00:55:16;5.57;;;4.00;;
65706;SDS011;52423;43.512;5.220;2023-06-19T00:57:42;4.40;;;3.90;;
65706;SDS011;52423;43.512;5.220;2023-06-19T01:00:08;4.50;;;4.10;;
65706;SDS011;52423;43.512;5.220;2023-06-19T01:02:36;4.78;;;3.88;;
65706;SDS011;52423;43.512;5.220;2023-06-19T01:05:02;5.20;;;3.80;;
65706;SDS011;52423;43.512;5.220;2023-06-19T01:09:59;5.20;;;3.97;;
65706;SDS011;52423;43.512;5.220;2023-06-19T01:12:33;6.28;;;4.35;;
65706;SDS011;52423;43.512;5.220;2023-06-19T01:15:03;8.63;;;4.75;;
65706;SDS011;52423;43.512;5.220;2023-06-19T01:17:30;8.35;;;4.13;;
65706;SDS011;52423;43.512;5.220;2023-06-19T01:19:56;6.35;;;4.72;;
65706;SDS011;52423;43.512;5.220;2023-06-19T01:22:28;4.78;;;4.38;;
65706;SDS011;52423;43.512;5.220;2023-06-19T01:24:57;5.85;;;3.97;;
65706;SDS011;52423;43.512;5.220;2023-06-19T01:27:23;4.80;;;4.35;;
65706;SDS011;52423;43.512;5.220;2023-06-19T01:29:59;7.30;;;4.57;;
65706;SDS011;52423;43.512;5.220;2023-06-19T01:35:13;5.22;;;4.70;;
65706;SDS011;52423;43.512;5.220;2023-06-19T01:37:42;5.43;;;4.78;;
65706;SDS011;52423;43.512;5.220;2023-06-19T01:40:08;6.13;;;4.60;;
65706;SDS011;52423;43.512;5.220;2023-06-19T01:42:37;10.13;;;4.63;;
65706;SDS011;52423;43.512;5.220;2023-06-19T01:45:04;4.90;;;4.45;;
65706;SDS011;52423;43.512;5.220;2023-06-19T01:47:31;5.05;;;4.20;;
65706;SDS011;52423;43.512;5.220;2023-06-19T01:49:57;5.55;;;4.55;;
65706;SDS011;52423;43.512;5.220;2023-06-19T01:52:23;7.10;;;4.38;;
65706;SDS011;52423;43.512;5.220;2023-06-19T01:54:49;8.57;;;5.20;;
65706;SDS011;52423;43.512;5.220;2023-06-19T01:57:15;5.95;;;4.15;;
65706;SDS011;52423;43.512;5.220;2023-06-19T01:59:41;6.03;;;4.60;;
65706;SDS011;52423;43.512;5.220;2023-06-19T02:02:06;6.15;;;4.93;;
65706;SDS011;52423;43.512;5.220;2023-06-19T02:04:32;6.90;;;4.72;;
65706;SDS011;52423;43.512;5.220;2023-06-19T02:06:58;5.35;;;4.85;;
65706;SDS011;52423;43.512;5.220;2023-06-19T02:09:24;6.25;;;4.75;;
65706;SDS011;52423;43.512;5.220;2023-06-19T02:11:49;6.80;;;4.85;;
65706;SDS011;52423;43.512;5.220;2023-06-19T02:14:15;5.45;;;4.68;;
65706;SDS011;52423;43.512;5.220;2023-06-19T02:16:40;9.27;;;5.32;;
65706;SDS011;52423;43.512;5.220;2023-06-19T02:19:09;6.65;;;5.55;;
65706;SDS011;52423;43.512;5.220;2023-06-19T02:21:35;7.18;;;5.30;;
65706;SDS011;52423;43.512;5.220;2023-06-19T02:24:01;5.50;;;5.00;;
65706;SDS011;52423;43.512;5.220;2023-06-19T02:26:26;8.18;;;5.10;;
65706;SDS011;52423;43.512;5.220;2023-06-19T02:28:54;6.60;;;5.10;;
65706;SDS011;52423;43.512;5.220;2023-06-19T02:31:20;5.70;;;5.20;;
65706;SDS011;52423;43.512;5.220;2023-06-19T02:33:49;7.55;;;5.30;;
65706;SDS011;52423;43.512;5.220;2023-06-19T02:36:14;6.22;;;5.22;;
65706;SDS011;52423;43.512;5.220;2023-06-19T02:38:50;6.57;;;4.82;;
65706;SDS011;52423;43.512;5.220;2023-06-19T02:41:16;7.70;;;5.20;;
65706;SDS011;52423;43.512;5.220;2023-06-19T02:43:42;6.45;;;4.80;;
65706;SDS011;52423;43.512;5.220;2023-06-19T02:46:08;10.15;;;5.28;;
65706;SDS011;52423;43.512;5.220;2023-06-19T02:48:34;12.50;;;5.50;;
65706;SDS011;52423;43.512;5.220;2023-06-19T02:51:00;6.18;;;5.22;;
65706;SDS011;52423;43.512;5.220;2023-06-19T02:53:25;6.90;;;5.13;;
65706;SDS011;52423;43.512;5.220;2023-06-19T02:55:50;5.43;;;5.03;;
65706;SDS011;52423;43.512;5.220;2023-06-19T02:58:16;7.85;;;5.55;;
65706;SDS011;52423;43.512;5.220;2023-06-19T03:00:41;6.22;;;5.65;;
65706;SDS011;52423;43.512;5.220;2023-06-19T03:03:07;8.85;;;5.47;;
65706;SDS011;52423;43.512;5.220;2023-06-19T03:05:32;9.52;;;5.45;;
65706;SDS011;52423;43.512;5.220;2023-06-19T03:07:58;6.78;;;4.90;;
65706;SDS011;52423;43.512;5.220;2023-06-19T03:10:23;7.88;;;5.35;;
65706;SDS011;52423;43.512;5.220;2023-06-19T03:12:49;5.45;;;4.90;;
65706;SDS011;52423;43.512;5.220;2023-06-19T03:15:14;8.70;;;5.53;;
65706;SDS011;52423;43.512;5.220;2023-06-19T03:17:39;8.73;;;5.72;;
65706;SDS011;52423;43.512;5.220;2023-06-19T03:20:05;6.45;;;5.50;;
65706;SDS011;52423;43.512;5.220;2023-06-19T03:22:31;5.32;;;4.95;;
65706;SDS011;52423;43.512;5.220;2023-06-19T03:24:57;5.97;;;5.40;;
65706;SDS011;52423;43.512;5.220;2023-06-19T03:27:22;5.68;;;5.28;;
65706;SDS011;52423;43.512;5.220;2023-06-19T03:29:51;7.88;;;5.35;;
65706;SDS011;52423;43.512;5.220;2023-06-19T03:32:18;5.80;;;5.30;;
65706;SDS011;52423;43.512;5.220;2023-06-19T03:34:44;6.53;;;5.05;;
65706;SDS011;52423;43.512;5.220;2023-06-19T03:37:09;6.43;;;5.05;;
65706;SDS011;52423;43.512;5.220;2023-06-19T03:39:35;6.65;;;5.55;;
65706;SDS011;52423;43.512;5.220;2023-06-19T03:42:00;6.60;;;5.47;;
65706;SDS011;52423;43.512;5.220;2023-06-19T03:44:25;7.72;;;5.35;;
65706;SDS011;52423;43.512;5.220;2023-06-19T03:46:51;5.55;;;5.05;;
65706;SDS011;52423;43.512;5.220;2023-06-19T03:49:16;6.47;;;5.43;;
65706;SDS011;52423;43.512;5.220;2023-06-19T03:51:42;6.88;;;5.25;;
65706;SDS011;52423;43.512;5.220;2023-06-19T03:54:08;6.00;;;5.55;;
65706;SDS011;52423;43.512;5.220;2023-06-19T03:56:33;9.07;;;5.53;;
65706;SDS011;52423;43.512;5.220;2023-06-19T03:58:59;5.63;;;5.10;;
65706;SDS011;52423;43.512;5.220;2023-06-19T04:01:24;10.88;;;5.43;;
65706;SDS011;52423;43.512;5.220;2023-06-19T04:03:49;6.97;;;5.55;;
65706;SDS011;52423;43.512;5.220;2023-06-19T04:06:15;6.72;;;4.85;;
65706;SDS011;52423;43.512;5.220;2023-06-19T04:08:40;6.05;;;5.35;;
65706;SDS011;52423;43.512;5.220;2023-06-19T04:11:06;6.93;;;5.07;;
65706;SDS011;52423;43.512;5.220;2023-06-19T04:13:31;5.82;;;5.15;;
65706;SDS011;52423;43.512;5.220;2023-06-19T04:15:57;5.75;;;5.35;;
65706;SDS011;52423;43.512;5.220;2023-06-19T04:18:22;5.47;;;4.93;;
65706;SDS011;52423;43.512;5.220;2023-06-19T04:20:47;10.90;;;5.07;;
65706;SDS011;52423;43.512;5.220;2023-06-19T04:23:13;5.80;;;5.20;;
65706;SDS011;52423;43.512;5.220;2023-06-19T04:25:38;7.00;;;5.32;;
65706;SDS011;52423;43.512;5.220;2023-06-19T04:28:04;7.40;;;5.28;;
65706;SDS011;52423;43.512;5.220;2023-06-19T04:30:29;6.07;;;5.45;;
65706;SDS011;52423;43.512;5.220;2023-06-19T04:32:57;6.55;;;5.28;;
65706;SDS011;52423;43.512;5.220;2023-06-19T04:35:22;5.78;;;5.18;;
65706;SDS011;52423;43.512;5.220;2023-06-19T04:37:48;7.63;;;5.55;;
65706;SDS011;52423;43.512;5.220;2023-06-19T04:40:14;5.97;;;5.45;;
65706;SDS011;52423;43.512;5.220;2023-06-19T04:42:40;5.55;;;5.05;;
65706;SDS011;52423;43.512;5.220;2023-06-19T04:45:06;6.32;;;5.38;;
65706;SDS011;52423;43.512;5.220;2023-06-19T04:47:32;5.82;;;5.03;;
65706;SDS011;52423;43.512;5.220;2023-06-19T04:49:59;7.65;;;5.53;;
65706;SDS011;52423;43.512;5.220;2023-06-19T04:52:25;6.40;;;5.40;;
65706;SDS011;52423;43.512;5.220;2023-06-19T04:54:50;5.75;;;5.20;;
65706;SDS011;52423;43.512;5.220;2023-06-19T04:57:16;5.72;;;5.13;;
65706;SDS011;52423;43.512;5.220;2023-06-19T04:59:44;6.07;;;4.97;;
65706;SDS011;52423;43.512;5.220;2023-06-19T05:02:10;8.40;;;5.43;;
65706;SDS011;52423;43.512;5.220;2023-06-19T05:04:36;5.68;;;5.10;;
65706;SDS011;52423;43.512;5.220;2023-06-19T05:07:01;5.97;;;5.38;;
65706;SDS011;52423;43.512;5.220;2023-06-19T05:09:27;8.48;;;5.43;;
65706;SDS011;52423;43.512;5.220;2023-06-19T05:11:53;8.20;;;5.35;;
65706;SDS011;52423;43.512;5.220;2023-06-19T05:14:19;7.35;;;5.38;;
65706;SDS011;52423;43.512;5.220;2023-06-19T05:16:44;6.40;;;5.63;;
65706;SDS011;52423;43.512;5.220;2023-06-19T05:19:10;7.78;;;5.78;;
65706;SDS011;52423;43.512;5.220;2023-06-19T05:21:35;6.38;;;5.15;;
65706;SDS011;52423;43.512;5.220;2023-06-19T05:24:01;12.15;;;5.53;;
65706;SDS011;52423;43.512;5.220;2023-06-19T05:26:27;7.88;;;5.70;;
65706;SDS011;52423;43.512;5.220;2023-06-19T05:28:52;6.95;;;6.18;;
65706;SDS011;52423;43.512;5.220;2023-06-19T05:31:18;8.10;;;5.38;;
65706;SDS011;52423;43.512;5.220;2023-06-19T05:33:43;6.75;;;5.35;;
65706;SDS011;52423;43.512;5.220;2023-06-19T05:36:09;6.40;;;4.90;;
65706;SDS011;52423;43.512;5.220;2023-06-19T05:38:35;7.50;;;5.20;;
65706;SDS011;52423;43.512;5.220;2023-06-19T05:41:01;8.88;;;5.20;;
65706;SDS011;52423;43.512;5.220;2023-06-19T05:43:29;8.93;;;5.32;;
65706;SDS011;52423;43.512;5.220;2023-06-19T05:45:55;10.88;;;5.10;;
65706;SDS011;52423;43.512;5.220;2023-06-19T05:48:22;6.72;;;5.55;;
65706;SDS011;52423;43.512;5.220;2023-06-19T05:50:50;6.55;;;5.03;;
65706;SDS011;52423;43.512;5.220;2023-06-19T05:53:15;6.80;;;4.85;;
65706;SDS011;52423;43.512;5.220;2023-06-19T05:55:41;5.10;;;4.60;;
65706;SDS011;52423;43.512;5.220;2023-06-19T05:58:06;6.72;;;4.97;;
65706;SDS011;52423;43.512;5.220;2023-06-19T06:00:31;6.13;;;4.40;;
65706;SDS011;52423;43.512;5.220;2023-06-19T06:02:57;6.22;;;4.88;;
65706;SDS011;52423;43.512;5.220;2023-06-19T06:05:26;5.85;;;4.78;;
65706;SDS011;52423;43.512;5.220;2023-06-19T06:07:52;5.97;;;5.15;;
65706;SDS011;52423;43.512;5.220;2023-06-19T06:10:22;9.55;;;5.45;;
65706;SDS011;52423;43.512;5.220;2023-06-19T06:12:48;8.10;;;4.63;;
65706;SDS011;52423;43.512;5.220;2023-06-19T06:15:14;11.07;;;5.40;;
65706;SDS011;52423;43.512;5.220;2023-06-19T06:17:40;7.35;;;4.70;;
65706;SDS011;52423;43.512;5.220;2023-06-19T06:20:05;6.65;;;5.18;;
65706;SDS011;52423;43.512;5.220;2023-06-19T06:22:36;6.07;;;4.73;;
65706;SDS011;52423;43.512;5.220;2023-06-19T06:25:02;9.93;;;5.13;;
65706;SDS011;52423;43.512;5.220;2023-06-19T06:27:27;7.53;;;4.55;;
65706;SDS011;52423;43.512;5.220;2023-06-19T06:29:53;6.82;;;4.95;;
65706;SDS011;52423;43.512;5.220;2023-06-19T06:32:18;13.50;;;4.80;;
65706;SDS011;52423;43.512;5.220;2023-06-19T06:34:44;4.50;;;4.10;;
65706;SDS011;52423;43.512;5.220;2023-06-19T06:37:09;13.45;;;4.95;;
65706;SDS011;52423;43.512;5.220;2023-06-19T06:39:34;8.32;;;4.38;;
65706;SDS011;52423;43.512;5.220;2023-06-19T06:42:00;16.30;;;4.68;;
65706;SDS011;52423;43.512;5.220;2023-06-19T06:44:25;5.47;;;4.68;;
65706;SDS011;52423;43.512;5.220;2023-06-19T06:46:51;4.95;;;4.50;;
65706;SDS011;52423;43.512;5.220;2023-06-19T06:49:16;6.18;;;4.32;;
65706;SDS011;52423;43.512;5.220;2023-06-19T06:51:42;4.07;;;3.58;;
65706;SDS011;52423;43.512;5.220;2023-06-19T06:54:07;6.88;;;4.40;;
65706;SDS011;52423;43.512;5.220;2023-06-19T06:56:33;6.63;;;4.22;;
65706;SDS011;52423;43.512;5.220;2023-06-19T06:58:58;4.85;;;3.80;;
65706;SDS011;52423;43.512;5.220;2023-06-19T07:01:24;5.95;;;3.95;;
65706;SDS011;52423;43.512;5.220;2023-06-19T07:03:49;5.55;;;3.60;;
65706;SDS011;52423;43.512;5.220;2023-06-19T07:06:14;4.10;;;3.70;;
65706;SDS011;52423;43.512;5.220;2023-06-19T07:08:40;7.70;;;3.60;;
65706;SDS011;52423;43.512;5.220;2023-06-19T07:11:06;4.93;;;3.63;;
65706;SDS011;52423;43.512;5.220;2023-06-19T07:13:32;6.75;;;3.47;;
65706;SDS011;52423;43.512;5.220;2023-06-19T07:15:57;3.83;;;3.50;;
65706;SDS011;52423;43.512;5.220;2023-06-19T07:18:24;4.10;;;3.72;;
65706;SDS011;52423;43.512;5.220;2023-06-19T07:20:49;6.95;;;3.90;;
65706;SDS011;52423;43.512;5.220;2023-06-19T07:23:15;5.93;;;3.72;;
65706;SDS011;52423;43.512;5.220;2023-06-19T07:25:40;4.15;;;3.75;;
65706;SDS011;52423;43.512;5.220;2023-06-19T07:28:06;10.32;;;3.80;;
65706;SDS011;52423;43.512;5.220;2023-06-19T07:30:31;6.70;;;4.25;;
65706;SDS011;52423;43.512;5.220;2023-06-19T07:32:57;6.45;;;3.60;;
65706;SDS011;52423;43.512;5.220;2023-06-19T07:35:22;8.45;;;3.90;;
65706;SDS011;52423;43.512;5.220;2023-06-19T07:37:48;7.93;;;3.40;;
65706;SDS011;52423;43.512;5.220;2023-06-19T07:40:13;10.20;;;3.85;;
65706;SDS011;52423;43.512;5.220;2023-06-19T07:42:39;4.13;;;3.80;;
65706;SDS011;52423;43.512;5.220;2023-06-19T07:45:04;7.40;;;3.97;;
65706;SDS011;52423;43.512;5.220;2023-06-19T07:47:30;9.77;;;4.25;;
65706;SDS011;52423;43.512;5.220;2023-06-19T07:49:56;10.43;;;4.22;;
65706;SDS011;52423;43.512;5.220;2023-06-19T07:52:21;14.70;;;3.80;;
65706;SDS011;52423;43.512;5.220;2023-06-19T07:54:50;5.53;;;3.92;;
65706;SDS011;52423;43.512;5.220;2023-06-19T07:57:17;5.57;;;4.03;;
65706;SDS011;52423;43.512;5.220;2023-06-19T07:59:43;3.38;;;3.05;;
65706;SDS011;52423;43.512;5.220;2023-06-19T08:02:09;3.95;;;3.58;;
65706;SDS011;52423;43.512;5.220;2023-06-19T08:04:35;5.90;;;3.40;;
65706;SDS011;52423;43.512;5.220;2023-06-19T08:07:00;5.70;;;3.50;;
65706;SDS011;52423;43.512;5.220;2023-06-19T08:09:26;3.85;;;3.47;;
65706;SDS011;52423;43.512;5.220;2023-06-19T08:11:51;5.38;;;2.97;;
65706;SDS011;52423;43.512;5.220;2023-06-19T08:14:17;9.07;;;3.17;;
65706;SDS011;52423;43.512;5.220;2023-06-19T08:16:42;5.43;;;3.10;;
65706;SDS011;52423;43.512;5.220;2023-06-19T08:19:07;3.35;;;2.97;;
65706;SDS011;52423;43.512;5.220;2023-06-19T08:21:33;4.10;;;3.33;;
65706;SDS011;52423;43.512;5.220;2023-06-19T08:23:58;6.60;;;3.58;;
65706;SDS011;52423;43.512;5.220;2023-06-19T08:26:24;5.03;;;3.28;;
65706;SDS011;52423;43.512;5.220;2023-06-19T08:28:49;4.50;;;3.70;;
65706;SDS011;52423;43.512;5.220;2023-06-19T08:31:14;5.45;;;3.35;;
65706;SDS011;52423;43.512;5.220;2023-06-19T08:33:41;3.88;;;3.50;;
65706;SDS011;52423;43.512;5.220;2023-06-19T08:36:07;6.45;;;3.35;;
65706;SDS011;52423;43.512;5.220;2023-06-19T08:38:32;5.18;;;3.40;;
65706;SDS011;52423;43.512;5.220;2023-06-19T08:40:58;4.47;;;3.50;;
65706;SDS011;52423;43.512;5.220;2023-06-19T08:43:24;10.52;;;3.60;;
65706;SDS011;52423;43.512;5.220;2023-06-19T08:46:03;8.85;;;3.63;;
65706;SDS011;52423;43.512;5.220;2023-06-19T08:48:35;7.43;;;3.67;;
65706;SDS011;52423;43.512;5.220;2023-06-19T08:51:01;6.97;;;3.20;;
65706;SDS011;52423;43.512;5.220;2023-06-19T08:53:29;5.60;;;3.72;;
65706;SDS011;52423;43.512;5.220;2023-06-19T08:55:54;3.60;;;3.20;;
65706;SDS011;52423;43.512;5.220;2023-06-19T08:58:22;10.43;;;3.78;;
65706;SDS011;52423;43.512;5.220;2023-06-19T09:00:48;4.57;;;3.40;;
65706;SDS011;52423;43.512;5.220;2023-06-19T09:03:19;6.22;;;3.80;;
65706;SDS011;52423;43.512;5.220;2023-06-19T09:05:46;10.98;;;3.80;;
65706;SDS011;52423;43.512;5.220;2023-06-19T09:08:15;7.88;;;3.95;;
65706;SDS011;52423;43.512;5.220;2023-06-19T09:10:53;4.00;;;3.55;;
65706;SDS011;52423;43.512;5.220;2023-06-19T09:13:20;9.30;;;3.90;;
65706;SDS011;52423;43.512;5.220;2023-06-19T09:15:45;9.48;;;3.88;;
65706;SDS011;52423;43.512;5.220;2023-06-19T09:18:11;3.75;;;3.35;;
65706;SDS011;52423;43.512;5.220;2023-06-19T09:20:38;5.80;;;3.28;;
65706;SDS011;52423;43.512;5.220;2023-06-19T09:23:12;9.60;;;3.58;;
65706;SDS011;52423;43.512;5.220;2023-06-19T09:26:11;3.88;;;3.03;;
65706;SDS011;52423;43.512;5.220;2023-06-19T09:28:29;10.05;;;3.50;;
65706;SDS011;52423;43.512;5.220;2023-06-19T09:33:26;8.38;;;3.88;;
65706;SDS011;52423;43.512;5.220;2023-06-19T09:35:54;6.13;;;3.53;;
65706;SDS011;52423;43.512;5.220;2023-06-19T09:38:24;5.60;;;3.28;;
65706;SDS011;52423;43.512;5.220;2023-06-19T09:40:52;6.32;;;3.20;;
65706;SDS011;52423;43.512;5.220;2023-06-19T09:43:19;7.45;;;3.33;;
65706;SDS011;52423;43.512;5.220;2023-06-19T09:48:17;4.38;;;3.50;;
65706;SDS011;52423;43.512;5.220;2023-06-19T09:50:45;4.88;;;3.50;;
65706;SDS011;52423;43.512;5.220;2023-06-19T09:53:15;7.25;;;3.75;;
65706;SDS011;52423;43.512;5.220;2023-06-19T09:55:42;4.78;;;3.60;;
65706;SDS011;52423;43.512;5.220;2023-06-19T09:58:08;6.38;;;4.03;;
65706;SDS011;52423;43.512;5.220;2023-06-19T10:00:34;7.57;;;3.65;;
65706;SDS011;52423;43.512;5.220;2023-06-19T10:03:02;6.75;;;3.65;;
65706;SDS011;52423;43.512;5.220;2023-06-19T10:05:29;4.60;;;3.40;;
65706;SDS011;52423;43.512;5.220;2023-06-19T10:07:56;3.92;;;3.50;;
65706;SDS011;52423;43.512;5.220;2023-06-19T10:10:26;3.70;;;3.15;;
65706;SDS011;52423;43.512;5.220;2023-06-19T10:12:57;3.35;;;3.13;;
65706;SDS011;52423;43.512;5.220;2023-06-19T10:23:35;5.70;;;3.85;;
65706;SDS011;52423;43.512;5.220;2023-06-19T10:25:41;4.95;;;3.40;;
65706;SDS011;52423;43.512;5.220;2023-06-19T10:28:21;7.05;;;3.47;;
65706;SDS011;52423;43.512;5.220;2023-06-19T10:30:58;4.00;;;3.60;;
65706;SDS011;52423;43.512;5.220;2023-06-19T10:33:28;5.30;;;3.78;;
65706;SDS011;52423;43.512;5.220;2023-06-19T10:35:55;4.43;;;3.70;;
65706;SDS011;52423;43.512;5.220;2023-06-19T10:38:21;6.43;;;3.55;;
65706;SDS011;52423;43.512;5.220;2023-06-19T10:40:47;9.95;;;3.55;;
65706;SDS011;52423;43.512;5.220;2023-06-19T10:43:13;4.38;;;3.70;;
65706;SDS011;52423;43.512;5.220;2023-06-19T10:45:46;4.18;;;3.58;;
65706;SDS011;52423;43.512;5.220;2023-06-19T10:48:17;7.60;;;3.95;;
65706;SDS011;52423;43.512;5.220;2023-06-19T10:50:47;4.20;;;3.80;;
65706;SDS011;52423;43.512;5.220;2023-06-19T10:53:23;7.55;;;3.83;;
65706;SDS011;52423;43.512;5.220;2023-06-19T10:55:54;4.15;;;3.70;;
65706;SDS011;52423;43.512;5.220;2023-06-19T10:58:20;5.55;;;3.55;;
65706;SDS011;52423;43.512;5.220;2023-06-19T11:00:46;4.10;;;3.72;;
65706;SDS011;52423;43.512;5.220;2023-06-19T11:03:11;8.27;;;3.83;;
65706;SDS011;52423;43.512;5.220;2023-06-19T11:05:37;5.70;;;3.60;;
65706;SDS011;52423;43.512;5.220;2023-06-19T11:08:08;4.22;;;3.72;;
65706;SDS011;52423;43.512;5.220;2023-06-19T11:10:34;8.10;;;3.92;;
65706;SDS011;52423;43.512;5.220;2023-06-19T11:12:59;6.15;;;3.80;;
65706;SDS011;52423;43.512;5.220;2023-06-19T11:15:32;4.72;;;3.50;;
65706;SDS011;52423;43.512;5.220;2023-06-19T11:17:59;9.23;;;3.28;;
65706;SDS011;52423;43.512;5.220;2023-06-19T11:20:26;4.70;;;3.65;;
65706;SDS011;52423;43.512;5.220;2023-06-19T11:22:59;5.10;;;3.33;;
65706;SDS011;52423;43.512;5.220;2023-06-19T11:25:35;11.95;;;3.97;;
65706;SDS011;52423;43.512;5.220;2023-06-19T11:28:03;4.00;;;3.25;;
65706;SDS011;52423;43.512;5.220;2023-06-19T11:30:33;3.75;;;3.45;;
65706;SDS011;52423;43.512;5.220;2023-06-19T11:32:59;6.57;;;3.80;;
65706;SDS011;52423;43.512;5.220;2023-06-19T11:35:25;7.00;;;3.20;;
65706;SDS011;52423;43.512;5.220;2023-06-19T11:37:59;7.00;;;3.53;;
65706;SDS011;52423;43.512;5.220;2023-06-19T11:40:24;5.78;;;3.60;;
65706;SDS011;52423;43.512;5.220;2023-06-19T11:42:53;5.07;;;3.83;;
65706;SDS011;52423;43.512;5.220;2023-06-19T11:45:19;5.10;;;3.75;;
65706;SDS011;52423;43.512;5.220;2023-06-19T11:47:45;3.70;;;3.40;;
65706;SDS011;52423;43.512;5.220;2023-06-19T11:50:11;4.60;;;2.92;;
65706;SDS011;52423;43.512;5.220;2023-06-19T11:52:38;8.88;;;3.50;;
65706;SDS011;52423;43.512;5.220;2023-06-19T11:55:04;5.60;;;3.22;;
65706;SDS011;52423;43.512;5.220;2023-06-19T11:57:30;7.80;;;3.97;;
65706;SDS011;52423;43.512;5.220;2023-06-19T11:59:58;5.20;;;4.03;;
65706;SDS011;52423;43.512;5.220;2023-06-19T12:02:23;4.70;;;3.80;;
65706;SDS011;52423;43.512;5.220;2023-06-19T12:04:48;4.82;;;3.75;;
65706;SDS011;52423;43.512;5.220;2023-06-19T12:07:14;4.55;;;3.50;;
65706;SDS011;52423;43.512;5.220;2023-06-19T12:09:40;3.92;;;3.15;;
65706;SDS011;52423;43.512;5.220;2023-06-19T12:12:08;3.85;;;3.55;;
65706;SDS011;52423;43.512;5.220;2023-06-19T12:14:34;8.55;;;3.92;;
65706;SDS011;52423;43.512;5.220;2023-06-19T12:16:59;11.07;;;4.00;;
65706;SDS011;52423;43.512;5.220;2023-06-19T12:19:25;7.50;;;3.85;;
65706;SDS011;52423;43.512;5.220;2023-06-19T12:21:51;7.82;;;3.72;;
65706;SDS011;52423;43.512;5.220;2023-06-19T12:24:16;4.88;;;3.53;;
65706;SDS011;52423;43.512;5.220;2023-06-19T12:26:42;7.25;;;3.50;;
65706;SDS011;52423;43.512;5.220;2023-06-19T12:29:07;8.45;;;3.60;;
65706;SDS011;52423;43.512;5.220;2023-06-19T12:31:33;4.15;;;3.33;;
65706;SDS011;52423;43.512;5.220;2023-06-19T12:33:59;4.18;;;3.25;;
65706;SDS011;52423;43.512;5.220;2023-06-19T12:36:26;6.20;;;3.67;;
65706;SDS011;52423;43.512;5.220;2023-06-19T12:38:52;6.55;;;3.58;;
65706;SDS011;52423;43.512;5.220;2023-06-19T12:41:19;5.85;;;3.50;;
65706;SDS011;52423;43.512;5.220;2023-06-19T12:43:47;4.97;;;3.45;;
65706;SDS011;52423;43.512;5.220;2023-06-19T12:46:13;7.20;;;4.10;;
65706;SDS011;52423;43.512;5.220;2023-06-19T12:48:39;4.75;;;3.70;;
65706;SDS011;52423;43.512;5.220;2023-06-19T12:51:05;5.93;;;3.95;;
65706;SDS011;52423;43.512;5.220;2023-06-19T12:53:31;3.78;;;3.40;;
65706;SDS011;52423;43.512;5.220;2023-06-19T12:55:57;4.32;;;3.90;;
65706;SDS011;52423;43.512;5.220;2023-06-19T12:58:23;8.10;;;4.20;;
65706;SDS011;52423;43.512;5.220;2023-06-19T13:00:48;4.68;;;4.00;;
65706;SDS011;52423;43.512;5.220;2023-06-19T13:03:13;4.70;;;3.58;;
65706;SDS011;52423;43.512;5.220;2023-06-19T13:05:39;4.40;;;4.00;;
65706;SDS011;52423;43.512;5.220;2023-06-19T13:08:04;4.57;;;3.80;;
65706;SDS011;52423;43.512;5.220;2023-06-19T13:10:30;4.30;;;3.72;;
65706;SDS011;52423;43.512;5.220;2023-06-19T13:12:55;5.25;;;3.85;;
65706;SDS011;52423;43.512;5.220;2023-06-19T13:15:23;9.38;;;3.92;;
65706;SDS011;52423;43.512;5.220;2023-06-19T13:17:48;7.10;;;3.28;;
65706;SDS011;52423;43.512;5.220;2023-06-19T13:20:14;4.60;;;3.70;;
65706;SDS011;52423;43.512;5.220;2023-06-19T13:22:40;6.63;;;3.70;;
65706;SDS011;52423;43.512;5.220;2023-06-19T13:25:06;5.75;;;3.88;;
65706;SDS011;52423;43.512;5.220;2023-06-19T13:27:31;10.70;;;4.05;;
65706;SDS011;52423;43.512;5.220;2023-06-19T13:29:57;9.95;;;3.85;;
65706;SDS011;52423;43.512;5.220;2023-06-19T13:32:24;6.00;;;3.53;;
65706;SDS011;52423;43.512;5.220;2023-06-19T13:34:50;13.27;;;4.03;;
65706;SDS011;52423;43.512;5.220;2023-06-19T13:37:15;5.68;;;3.58;;
65706;SDS011;52423;43.512;5.220;2023-06-19T13:39:41;8.60;;;3.60;;
65706;SDS011;52423;43.512;5.220;2023-06-19T13:42:06;8.63;;;4.35;;
65706;SDS011;52423;43.512;5.220;2023-06-19T13:44:32;5.05;;;3.90;;
65706;SDS011;52423;43.512;5.220;2023-06-19T13:46:57;3.38;;;3.17;;
65706;SDS011;52423;43.512;5.220;2023-06-19T13:49:23;5.20;;;3.88;;
65706;SDS011;52423;43.512;5.220;2023-06-19T13:51:48;4.30;;;3.30;;
65706;SDS011;52423;43.512;5.220;2023-06-19T13:54:14;5.28;;;3.20;;
65706;SDS011;52423;43.512;5.220;2023-06-19T13:56:39;3.20;;;3.00;;
65706;SDS011;52423;43.512;5.220;2023-06-19T13:59:05;6.63;;;2.97;;
65706;SDS011;52423;43.512;5.220;2023-06-19T14:01:31;3.47;;;3.17;;
65706;SDS011;52423;43.512;5.220;2023-06-19T14:03:57;11.38;;;3.33;;
65706;SDS011;52423;43.512;5.220;2023-06-19T14:06:23;4.20;;;3.22;;
65706;SDS011;52423;43.512;5.220;2023-06-19T14:08:49;5.93;;;3.28;;
65706;SDS011;52423;43.512;5.220;2023-06-19T14:11:15;3.22;;;3.00;;
65706;SDS011;52423;43.512;5.220;2023-06-19T14:13:40;3.85;;;2.88;;
65706;SDS011;52423;43.512;5.220;2023-06-19T14:16:06;7.65;;;3.25;;
65706;SDS011;52423;43.512;5.220;2023-06-19T14:18:31;4.43;;;3.17;;
65706;SDS011;52423;43.512;5.220;2023-06-19T14:20:58;3.10;;;2.90;;
65706;SDS011;52423;43.512;5.220;2023-06-19T14:23:23;3.20;;;2.90;;
65706;SDS011;52423;43.512;5.220;2023-06-19T14:25:49;10.10;;;3.42;;
65706;SDS011;52423;43.512;5.220;2023-06-19T14:28:14;5.50;;;3.63;;
65706;SDS011;52423;43.512;5.220;2023-06-19T14:30:40;8.68;;;4.15;;
65706;SDS011;52423;43.512;5.220;2023-06-19T14:33:05;6.30;;;4.00;;
65706;SDS011;52423;43.512;5.220;2023-06-19T14:35:32;6.75;;;4.05;;
65706;SDS011;52423;43.512;5.220;2023-06-19T14:37:57;9.50;;;4.30;;
65706;SDS011;52423;43.512;5.220;2023-06-19T14:40:22;9.88;;;4.13;;
65706;SDS011;52423;43.512;5.220;2023-06-19T14:42:48;7.85;;;4.00;;
65706;SDS011;52423;43.512;5.220;2023-06-19T14:45:14;6.82;;;4.20;;
65706;SDS011;52423;43.512;5.220;2023-06-19T14:47:40;7.50;;;4.20;;
65706;SDS011;52423;43.512;5.220;2023-06-19T14:50:05;12.65;;;3.90;;
65706;SDS011;52423;43.512;5.220;2023-06-19T14:52:31;8.32;;;4.28;;
65706;SDS011;52423;43.512;5.220;2023-06-19T14:54:57;5.15;;;3.60;;
65706;SDS011;52423;43.512;5.220;2023-06-19T14:57:24;8.32;;;4.03;;
65706;SDS011;52423;43.512;5.220;2023-06-19T14:59:50;8.80;;;4.00;;